首页
METAR-TAF:

METAR-TAF

机场 :

Ponta Delgada, 亚速尔群岛, 葡萄牙

纬度: 37-44N, 经度: 025-42W, 海拔: 71米

当前天气观测

该预报发布于27分钟前的14:00 UTC
风速7节,风向西南
温度 16°C
湿度 82%
气压 1022 hPa
能见度10公里或以上
少量云层高于1800英尺
多云层高于3500英尺

METAR: LPPD 261400Z 22007KT 9999 FEW018 BKN035 16/13 Q1022

时间: 13:27 (14:27 UTC)

预报

该预报发布于3小时和27分钟前的11:00 UTC
预报有效从26日的 12点(UTC)到 27日的 12点(UTC)
风速5节,风向多变
能见度10公里或以上
散云层高于1800英尺
多云层高于3000英尺
成为
从 26日的 12点(UTC)到 26日的 15点(UTC)
风速12节,风向西南
几率 40% :
短暂存在
从 26日的 12点(UTC)到 26日的 22点(UTC)
能見度: 5000
散云层高于400英尺
多云层高于800英尺
毛毛雨, 雨, 轻雾
短暂存在
从 26日的 23点(UTC)到 27日的 09点(UTC)
散云层高于2000英尺
成为
从 27日的 04点(UTC)到 27日的 07点(UTC)
风速17节,风向西南

TAF: LPPD 261100Z 2612/2712 VRB05KT 9999 SCT018 BKN030 BECMG 2612/2615 23012KT PROB40 TEMPO 2612/2622 5000 DZRA BR SCT004 BKN008 TEMPO 2623/2709 SCT020 BECMG 2704/2707 22017KT

超过4000个机场的气象观测和天气预报(METAR&TAF报告)。

可查询的气象台以黄色和红色小点在地图上表示。

将鼠标移到小点上方,可查看气象台名称。

然后点击查看天气观测和预报。

如需切换地图:点击带黑十字的绿色按钮放大地图;点击带横线的绿色按钮缩小地图;或者点击绿色箭头查看邻近地区的地图。


METAR-TAF: